Time;durP1;ratioP1;P1;durP2;ratioP2;P2;SDS_P1;SDS_P2;PMS_P1;PMS_P2;Temp;Humidity;BMP_temperature;BMP_pressure;BME280_temperature;BME280_humidity;BME280_pressure;Samples;Min_cycle;Max_cycle;Signal;HPM_P1;HPM_P2
2021/12/24 00:03:37;;;;;;;84.53;47.63;;;;;;;5.43;93.63;100405.44;10457512;28;20040;-82
2021/12/24 00:08:37;;;;;;;78.00;48.35;;;;;;;5.50;93.65;100400.59;10458920;28;20025;-82
2021/12/24 00:13:41;;;;;;;82.80;49.20;;;;;;;5.47;93.82;100396.09;10459096;28;20027;-82
2021/12/24 00:39:53;;;;;;;79.03;47.65;;;;;;;5.62;93.81;100370.19;10435105;28;20049;-82
2021/12/24 00:44:54;;;;;;;76.88;48.35;;;;;;;5.63;94.03;100369.38;10457807;28;20123;-82
2021/12/24 00:49:54;;;;;;;75.55;47.75;;;;;;;5.64;94.01;100362.47;10457046;28;20112;-82
2021/12/24 00:55:09;;;;;;;73.47;48.00;;;;;;;5.65;94.01;100364.28;10457651;28;20041;-82
2021/12/24 01:00:15;;;;;;;79.53;47.15;;;;;;;5.69;93.54;100364.56;10457060;28;20160;-82
2021/12/24 01:05:16;;;;;;;78.45;46.55;;;;;;;5.70;94.18;100363.75;10441411;28;20036;-82
2021/12/24 01:10:18;;;;;;;77.75;48.10;;;;;;;5.78;93.81;100360.72;10457575;28;20460;-82
2021/12/24 01:15:19;;;;;;;74.60;46.67;;;;;;;5.81;94.12;100353.09;10438891;28;20060;-81
2021/12/24 01:20:41;;;;;;;91.55;52.90;;;;;;;5.83;93.84;100348.91;10455835;28;20036;-82
2021/12/24 01:25:51;;;;;;;94.05;52.35;;;;;;;5.86;94.37;100354.28;10457413;28;20075;-82
2021/12/24 01:46:49;;;;;;;100.68;58.47;;;;;;;6.01;93.78;100355.19;10428501;28;20049;-81
2021/12/24 01:51:50;;;;;;;100.25;58.95;;;;;;;6.01;94.12;100355.19;10446453;28;20106;-82
2021/12/24 01:56:51;;;;;;;99.22;56.65;;;;;;;6.06;93.85;100351.97;10436953;28;20500;-81
2021/12/24 02:01:51;;;;;;;93.07;57.92;;;;;;;6.02;94.31;100350.88;10453422;28;20120;-82
2021/12/24 02:06:52;;;;;;;111.97;58.35;;;;;;;6.05;93.97;100343.25;10454622;28;20028;-81
2021/12/24 02:11:52;;;;;;;88.75;51.85;;;;;;;6.07;94.16;100338.16;10453925;28;20028;-82
2021/12/24 02:32:40;;;;;;;92.95;51.63;;;;;;;6.04;93.70;100318.09;10430107;28;20029;-81
2021/12/24 02:37:41;;;;;;;95.45;50.95;;;;;;;6.04;93.13;100328.47;10453986;28;20033;-81
2021/12/24 02:42:48;;;;;;;76.47;50.70;;;;;;;6.08;94.17;100319.16;10468949;28;20586;-81
2021/12/24 02:58:46;;;;;;;79.07;46.53;;;;;;;6.09;93.67;100300.19;10453362;28;20033;-80
2021/12/24 03:03:48;;;;;;;84.43;46.88;;;;;;;6.10;93.75;100307.16;10454464;28;20060;-81
2021/12/24 03:08:48;;;;;;;;;;;;;;;6.09;93.75;100295.84;10436218;28;20408;-81
2021/12/24 03:13:49;;;;;;;73.88;44.75;;;;;;;6.11;93.94;100308.94;10452588;28;19919;-81
2021/12/24 03:18:50;;;;;;;84.47;48.67;;;;;;;6.08;93.27;100319.16;10452809;28;20032;-81
2021/12/24 03:29:09;;;;;;;75.47;44.88;;;;;;;6.10;93.73;100308.03;10447995;28;20036;-81
2021/12/24 03:34:11;;;;;;;80.35;46.20;;;;;;;6.11;94.05;100320.22;10435198;28;20397;-81
2021/12/24 03:39:11;;;;;;;;;;;;;;;6.16;93.50;100305.78;10453471;28;20083;-81
2021/12/24 03:44:13;;;;;;;89.47;45.60;;;;;;;6.22;93.32;100315.66;10467864;28;20434;-81
2021/12/24 03:49:20;;;;;;;66.93;41.90;;;;;;;6.25;93.26;100317.50;10452503;28;20074;-80
2021/12/24 03:59:40;;;;;;;70.82;41.08;;;;;;;6.31;93.44;100315.25;10466164;28;20040;-81
2021/12/24 04:04:40;;;;;;;72.25;42.45;;;;;;;6.35;93.24;100309.41;10437214;28;20068;-80
2021/12/24 04:10:02;;;;;;;68.05;42.80;;;;;;;6.32;92.95;100310.16;10457527;28;20100;-81
2021/12/24 04:15:03;;;;;;;68.03;39.03;;;;;;;6.37;92.80;100309.53;10459843;28;20055;-81
2021/12/24 04:25:13;;;;;;;61.75;39.30;;;;;;;6.45;92.79;100313.44;10474291;28;20350;-81
2021/12/24 04:30:18;;;;;;;72.15;35.22;;;;;;;6.41;92.86;100322.75;10457266;28;20053;-81
2021/12/24 05:01:39;;;;;;;68.32;36.13;;;;;;;6.50;92.64;100311.06;10456426;28;20036;-81
2021/12/24 05:06:49;;;;;;;60.35;38.55;;;;;;;6.53;92.54;100321.66;10457479;28;20035;-81
2021/12/24 05:11:50;;;;;;;61.85;34.08;;;;;;;6.53;92.83;100324.25;10456078;28;20107;-81
2021/12/24 05:16:54;;;;;;;63.38;37.05;;;;;;;6.64;92.94;100323.13;10455747;28;20166;-81
2021/12/24 05:21:55;;;;;;;63.47;37.65;;;;;;;6.65;92.84;100326.66;10455981;28;20101;-80
2021/12/24 05:27:02;;;;;;;52.10;32.67;;;;;;;6.63;92.73;100331.75;10456037;28;20127;-81
2021/12/24 05:32:03;;;;;;;60.13;33.35;;;;;;;6.68;92.74;100330.28;10456434;28;20064;-80
2021/12/24 05:37:03;;;;;;;54.17;34.67;;;;;;;6.69;92.01;100321.69;10487734;28;20052;-81
2021/12/24 05:42:04;;;;;;;51.35;32.97;;;;;;;6.69;92.69;100323.41;10472641;28;20045;-81
2021/12/24 05:47:05;;;;;;;65.50;32.92;;;;;;;6.68;92.50;100322.50;10454465;28;20079;-81
2021/12/24 05:52:06;;;;;;;62.25;36.65;;;;;;;6.71;92.39;100337.38;10454169;28;20492;-81
2021/12/24 05:57:07;;;;;;;59.65;34.03;;;;;;;6.75;92.02;100339.34;10455274;28;20032;-80
2021/12/24 06:02:07;;;;;;;57.90;32.60;;;;;;;6.79;91.89;100324.78;10454031;28;20401;-80
2021/12/24 06:07:08;;;;;;;57.05;31.70;;;;;;;6.76;92.09;100331.59;10453618;28;20064;-81
2021/12/24 06:12:09;;;;;;;65.13;36.58;;;;;;;6.77;91.66;100327.31;10448522;28;20052;-79
2021/12/24 06:17:15;;;;;;;53.83;32.20;;;;;;;6.81;91.79;100336.16;10454201;28;20021;-82
2021/12/24 06:22:15;;;;;;;52.33;32.50;;;;;;;6.81;92.01;100338.75;10467817;28;20037;-80
2021/12/24 06:27:16;;;;;;;51.45;29.50;;;;;;;6.80;91.64;100343.09;10453311;28;20119;-82
2021/12/24 06:32:16;;;;;;;55.97;29.95;;;;;;;6.83;91.90;100344.94;10452185;28;20064;-81
2021/12/24 06:37:17;;;;;;;51.67;30.85;;;;;;;6.80;92.02;100345.69;10451444;28;20133;-87
2021/12/24 06:42:17;;;;;;;59.63;32.22;;;;;;;6.80;91.30;100332.69;10451248;28;20119;-81
2021/12/24 06:47:18;;;;;;;58.30;30.70;;;;;;;6.74;91.44;100341.03;10451180;28;20408;-81
2021/12/24 06:52:18;;;;;;;70.85;34.45;;;;;;;6.74;91.14;100351.44;10480562;28;20041;-82
2021/12/24 06:57:20;;;;;;;50.88;30.15;;;;;;;6.68;91.23;100355.41;10451755;28;20068;-81
2021/12/24 07:02:20;;;;;;;65.13;33.80;;;;;;;6.74;92.13;100354.03;10450091;28;20036;-82
2021/12/24 07:07:21;;;;;;;60.97;30.38;;;;;;;6.76;91.92;100346.31;10459460;28;20027;-81
2021/12/24 07:12:21;;;;;;;58.72;31.42;;;;;;;6.70;91.19;100353.78;10482709;28;20028;-82
2021/12/24 07:17:22;;;;;;;89.13;31.90;;;;;;;6.73;91.23;100347.03;10444185;28;20060;-82
2021/12/24 07:22:22;;;;;;;49.17;27.88;;;;;;;6.74;91.70;100340.16;10480443;28;20056;-86
2021/12/24 07:27:23;;;;;;;55.03;30.35;;;;;;;6.72;91.76;100331.38;10447232;28;20119;-83
2021/12/24 07:32:23;;;;;;;51.63;29.38;;;;;;;6.71;91.53;100334.78;10432953;28;20046;-82
2021/12/24 07:37:24;;;;;;;57.78;31.50;;;;;;;6.61;91.36;100349.88;10476614;28;20530;-81
2021/12/24 07:42:26;;;;;;;56.25;29.73;;;;;;;6.67;91.47;100351.91;10483558;28;20052;-82
2021/12/24 07:47:37;;;;;;;;;;;;;;;6.65;91.63;100350.03;10476081;28;20037;-82
2021/12/24 07:52:38;;;;;;;62.55;30.17;;;;;;;6.58;91.52;100354.00;10478222;28;19926;-80
2021/12/24 07:57:38;;;;;;;53.15;30.27;;;;;;;6.65;91.60;100360.44;10497368;28;20437;-81
2021/12/24 08:02:40;;;;;;;60.15;35.78;;;;;;;6.68;91.81;100356.28;10487085;28;20025;-82
2021/12/24 08:07:40;;;;;;;75.53;30.40;;;;;;;6.75;91.29;100349.75;10476520;28;20033;-81
2021/12/24 08:12:42;;;;;;;58.80;27.40;;;;;;;6.73;91.82;100346.16;10449298;28;20479;-81
2021/12/24 08:17:43;;;;;;;50.55;26.48;;;;;;;6.78;90.91;100349.91;10469071;28;20099;-81
2021/12/24 08:22:43;;;;;;;51.60;24.58;;;;;;;6.79;91.03;100348.19;10478537;28;20021;-82
2021/12/24 08:27:44;;;;;;;60.05;27.80;;;;;;;6.89;90.78;100350.47;10498719;28;20068;-82
2021/12/24 08:32:44;;;;;;;53.50;29.30;;;;;;;6.90;90.90;100353.19;10448542;28;20037;-82
2021/12/24 08:37:45;;;;;;;44.83;25.52;;;;;;;6.84;90.17;100358.03;10472304;28;20060;-82
2021/12/24 08:42:45;;;;;;;52.25;24.15;;;;;;;6.88;90.43;100354.81;10459780;28;20037;-82
2021/12/24 08:47:46;;;;;;;48.75;25.83;;;;;;;6.87;90.81;100342.59;10455095;28;20170;-81
2021/12/24 08:52:46;;;;;;;44.10;24.60;;;;;;;6.96;90.35;100333.50;10464641;28;20037;-82
2021/12/24 08:57:47;;;;;;;42.78;23.70;;;;;;;6.96;90.23;100333.50;10488230;28;20082;-81
2021/12/24 09:02:48;;;;;;;45.90;25.15;;;;;;;6.99;90.02;100331.94;10499203;28;20174;-81
2021/12/24 09:07:48;;;;;;;42.58;25.08;;;;;;;7.00;90.22;100325.06;10498505;28;20056;-81
2021/12/24 09:12:49;;;;;;;46.00;23.88;;;;;;;7.00;89.73;100327.66;10496214;28;20029;-81
2021/12/24 09:17:49;;;;;;;40.90;24.80;;;;;;;7.05;89.50;100321.00;10481642;28;20028;-81
2021/12/24 09:22:50;;;;;;;36.72;22.38;;;;;;;7.11;89.23;100323.00;10422040;28;20068;-81
2021/12/24 09:27:51;;;;;;;37.83;21.60;;;;;;;7.26;89.23;100331.63;10441401;28;20031;-81
2021/12/24 09:32:52;;;;;;;50.47;21.20;;;;;;;7.31;88.68;100329.28;10457322;28;20416;-81
2021/12/24 09:37:53;;;;;;;38.28;21.67;;;;;;;7.31;88.75;100321.47;10489012;28;20060;-81
2021/12/24 09:42:54;;;;;;;45.22;22.92;;;;;;;7.28;88.29;100329.09;10456587;28;20029;-81
2021/12/24 09:47:54;;;;;;;42.42;20.55;;;;;;;7.25;88.70;100329.81;10462611;28;20094;-81
2021/12/24 09:52:55;;;;;;;44.17;19.50;;;;;;;7.29;88.87;100318.75;10471622;28;20036;-81
2021/12/24 09:57:56;;;;;;;46.30;20.95;;;;;;;7.28;88.59;100318.69;10485753;28;20115;-81
2021/12/24 10:02:57;;;;;;;33.22;19.08;;;;;;;7.22;88.35;100316.66;10449537;28;20044;-82
2021/12/24 10:08:10;;;;;;;48.65;21.65;;;;;;;7.30;88.37;100304.06;10453747;28;20036;-82
2021/12/24 10:13:36;;;;;;;45.15;20.02;;;;;;;7.41;88.09;100317.59;10452350;28;20037;-81
2021/12/24 10:18:50;;;;;;;39.47;18.52;;;;;;;7.54;87.75;100309.59;10434077;28;20040;-82
2021/12/24 10:23:59;;;;;;;37.35;20.60;;;;;;;7.76;87.18;100309.00;10452852;28;20041;-81
2021/12/24 10:29:03;;;;;;;35.38;21.10;;;;;;;7.93;86.40;100312.44;10452839;28;20111;-81
2021/12/24 10:34:18;;;;;;;41.60;19.42;;;;;;;7.95;85.87;100315.13;10452234;28;20503;-82
2021/12/24 10:39:19;;;;;;;43.95;19.88;;;;;;;7.85;86.35;100303.34;10478138;28;20064;-81
2021/12/24 10:44:22;;;;;;;37.92;17.90;;;;;;;7.87;85.95;100299.09;10422843;28;20046;-82
2021/12/24 10:49:35;;;;;;;36.10;21.23;;;;;;;7.76;86.28;100305.47;10501320;28;20377;-82
2021/12/24 10:54:47;;;;;;;37.85;21.23;;;;;;;7.72;86.24;100308.75;10443319;28;20121;-82
2021/12/24 10:59:51;;;;;;;41.05;21.83;;;;;;;7.69;86.86;100306.00;10457002;28;20040;-81
2021/12/24 11:04:53;;;;;;;46.95;22.40;;;;;;;7.67;86.42;100305.94;10444745;28;20059;-82
2021/12/24 11:10:15;;;;;;;41.80;22.23;;;;;;;7.51;86.89;100301.66;10466333;28;20044;-81
2021/12/24 11:15:32;;;;;;;35.13;22.35;;;;;;;7.53;87.35;100309.56;10491937;28;20024;-82
2021/12/24 11:20:33;;;;;;;46.25;20.83;;;;;;;7.55;87.13;100295.78;10476215;28;20482;-82
2021/12/24 11:25:44;;;;;;;37.25;21.95;;;;;;;7.53;86.95;100283.50;10440888;28;20037;-81
2021/12/24 11:30:59;;;;;;;44.08;23.63;;;;;;;7.56;87.42;100274.13;10440308;28;20029;-81
2021/12/24 11:36:02;;;;;;;43.70;26.10;;;;;;;7.56;87.13;100294.09;10461298;28;20114;-81
2021/12/24 11:41:03;;;;;;;57.78;25.42;;;;;;;7.52;86.61;100302.56;10471014;28;20389;-82
2021/12/24 11:46:06;;;;;;;45.73;28.97;;;;;;;7.44;87.43;100305.66;10453936;28;20023;-82
2021/12/24 11:51:29;;;;;;;43.80;25.35;;;;;;;7.42;87.45;100296.88;10453268;28;20053;-84
2021/12/24 11:56:42;;;;;;;50.13;25.13;;;;;;;7.71;87.14;100288.72;10417191;28;20392;-83
2021/12/24 12:01:52;;;;;;;36.55;21.02;;;;;;;7.82;85.75;100294.50;10417694;28;20029;-83
2021/12/24 12:07:16;;;;;;;45.78;21.52;;;;;;;7.82;85.88;100292.75;10454983;28;20029;-82
2021/12/24 12:12:17;;;;;;;39.78;21.90;;;;;;;7.80;85.99;100286.59;10456351;28;20033;-84
2021/12/24 12:17:24;;;;;;;35.58;21.83;;;;;;;7.82;86.04;100276.25;10440317;28;20037;-81
2021/12/24 12:27:54;;;;;;;32.40;19.42;;;;;;;7.84;85.51;100269.41;10456156;28;20025;-84
2021/12/24 12:33:11;;;;;;;38.47;21.27;;;;;;;7.94;85.13;100274.25;10492568;28;20060;-83
2021/12/24 12:38:28;;;;;;;33.28;20.00;;;;;;;7.97;84.85;100270.88;10438533;28;20082;-81
2021/12/24 12:43:31;;;;;;;38.72;22.00;;;;;;;7.88;85.73;100276.56;10462287;28;20029;-83
2021/12/24 12:48:42;;;;;;;36.53;18.73;;;;;;;7.98;85.65;100276.19;10452678;28;20377;-86
2021/12/24 12:53:43;;;;;;;36.45;20.23;;;;;;;8.11;85.35;100271.56;10472508;28;20036;-85
2021/12/24 12:58:47;;;;;;;32.22;20.30;;;;;;;8.09;84.88;100279.28;10457079;28;20029;-86
2021/12/24 13:03:57;;;;;;;37.60;20.25;;;;;;;8.01;85.08;100285.84;10464950;28;20119;-85
2021/12/24 13:08:58;;;;;;;35.85;21.02;;;;;;;7.86;85.17;100281.69;10458070;28;20029;-88
2021/12/24 13:14:01;;;;;;;32.35;19.17;;;;;;;7.74;85.63;100281.97;10463717;28;20550;-86
2021/12/24 13:24:30;;;;;;;34.72;21.65;;;;;;;7.86;85.80;100262.56;10422673;28;20127;-85
2021/12/24 13:29:30;;;;;;;35.58;18.08;;;;;;;7.86;85.60;100249.53;10460195;28;20119;-86
2021/12/24 13:34:34;;;;;;;35.28;20.40;;;;;;;7.87;85.08;100243.50;10490771;28;20048;-84
2021/12/24 13:39:37;;;;;;;50.40;21.10;;;;;;;7.77;85.46;100252.56;10462922;28;20060;-86
2021/12/24 13:44:39;;;;;;;49.80;22.67;;;;;;;7.63;85.92;100260.59;10469217;28;20029;-85
2021/12/24 13:55:18;;;;;;;36.15;21.13;;;;;;;7.44;86.22;100256.19;10447766;28;20083;-86
2021/12/24 14:00:19;;;;;;;39.03;22.20;;;;;;;7.38;86.48;100254.97;10434535;28;20063;-83
2021/12/24 14:05:20;;;;;;;43.38;20.88;;;;;;;7.27;86.34;100255.31;10455137;28;20473;-86
2021/12/24 14:10:22;;;;;;;47.67;25.20;;;;;;;7.27;86.58;100251.84;10440329;28;20056;-84
2021/12/24 14:15:26;;;;;;;40.63;22.80;;;;;;;7.21;87.11;100231.56;10471356;28;20028;-83
2021/12/24 14:20:48;;;;;;;55.65;23.83;;;;;;;7.15;87.07;100241.69;10470272;28;20052;-86
2021/12/24 14:25:57;;;;;;;47.55;24.58;;;;;;;7.18;87.12;100244.44;10427071;28;20024;-85
2021/12/24 14:31:02;;;;;;;42.45;24.17;;;;;;;7.17;87.28;100234.84;10411953;28;20040;-86
2021/12/24 14:36:04;;;;;;;47.05;25.05;;;;;;;7.12;87.09;100233.72;10445233;28;20114;-86
2021/12/24 14:41:07;;;;;;;47.20;24.13;;;;;;;6.99;86.55;100232.19;10455327;28;20041;-85
2021/12/24 14:46:08;;;;;;;50.80;25.00;;;;;;;6.76;87.81;100237.09;10457479;28;20120;-83
2021/12/24 14:51:12;;;;;;;56.90;27.85;;;;;;;6.58;87.43;100250.91;10436696;28;20435;-85
2021/12/24 14:56:17;;;;;;;46.65;28.83;;;;;;;6.44;88.51;100254.47;10445066;28;20473;-85
2021/12/24 15:01:25;;;;;;;41.97;26.48;;;;;;;6.29;88.75;100255.41;10485026;28;20028;-85
2021/12/24 15:06:29;;;;;;;55.15;29.02;;;;;;;6.17;89.09;100253.00;10463978;28;20021;-86
2021/12/24 15:11:33;;;;;;;48.22;26.67;;;;;;;6.02;89.49;100266.06;10420114;28;20033;-86
2021/12/24 15:16:35;;;;;;;48.90;31.65;;;;;;;5.96;90.68;100269.97;10457900;28;20029;-84
2021/12/24 15:21:39;;;;;;;47.55;30.67;;;;;;;5.91;90.56;100272.31;10465192;28;20032;-84
2021/12/24 15:26:40;;;;;;;58.53;34.60;;;;;;;5.81;90.43;100283.84;10467765;28;20028;-85
2021/12/24 15:31:41;;;;;;;61.15;33.35;;;;;;;5.69;90.42;100276.28;10430669;28;20124;-84
2021/12/24 15:36:42;;;;;;;50.92;29.52;;;;;;;5.49;90.98;100280.28;10483737;28;20044;-84
2021/12/24 15:41:47;;;;;;;58.10;32.92;;;;;;;5.27;91.18;100279.03;10452068;28;20033;-86
2021/12/24 15:46:50;;;;;;;77.45;42.22;;;;;;;5.08;90.99;100286.50;10466620;28;20040;-87
2021/12/24 15:51:51;;;;;;;74.43;36.80;;;;;;;5.18;92.14;100299.22;10447892;28;20057;-86
2021/12/24 15:56:55;;;;;;;65.07;39.00;;;;;;;5.40;92.24;100311.81;10449084;28;20499;-85
2021/12/24 16:01:59;;;;;;;67.07;40.55;;;;;;;5.56;93.22;100311.00;10455487;28;20041;-84
2021/12/24 16:07:04;;;;;;;86.32;40.97;;;;;;;5.71;92.92;100315.28;10458456;28;20029;-85
2021/12/24 16:12:09;;;;;;;81.38;45.45;;;;;;;5.78;92.41;100320.03;10455748;28;20041;-85
2021/12/24 16:17:24;;;;;;;74.50;40.75;;;;;;;5.94;92.65;100321.84;10455853;28;20110;-84
2021/12/24 16:22:31;;;;;;;64.18;36.90;;;;;;;6.03;92.54;100308.50;10445424;28;20032;-85
2021/12/24 16:27:44;;;;;;;75.90;41.17;;;;;;;6.11;92.02;100302.03;10460378;28;20033;-84
2021/12/24 16:32:53;;;;;;;70.63;34.88;;;;;;;6.13;91.47;100297.81;10454611;28;20068;-84
2021/12/24 16:38:02;;;;;;;74.22;38.53;;;;;;;6.05;90.45;100298.22;10461579;28;20040;-84
2021/12/24 16:43:07;;;;;;;74.50;38.95;;;;;;;5.83;90.55;100303.03;10488650;28;20469;-86
2021/12/24 16:48:12;;;;;;;83.63;38.50;;;;;;;5.57;91.19;100292.03;10455628;28;20067;-85
2021/12/24 16:53:17;;;;;;;67.57;34.78;;;;;;;5.37;90.47;100297.75;10457530;28;20033;-86
2021/12/24 16:58:19;;;;;;;70.30;35.65;;;;;;;5.09;90.98;100272.72;10457201;28;20025;-86
2021/12/24 17:03:20;;;;;;;;;;;;;;;4.91;91.25;100282.91;10470527;28;20572;-86
2021/12/24 17:08:24;;;;;;;87.85;40.28;;;;;;;4.73;91.99;100283.56;10456466;28;20007;-84
2021/12/24 17:13:30;;;;;;;78.28;43.28;;;;;;;4.50;91.94;100287.31;10452809;28;20033;-86
2021/12/24 17:18:31;;;;;;;82.70;45.55;;;;;;;4.47;92.02;100294.88;10470937;28;20044;-85
2021/12/24 17:23:33;;;;;;;91.95;47.72;;;;;;;4.36;92.17;100287.34;10455133;28;20025;-84
2021/12/24 17:28:38;;;;;;;81.15;43.97;;;;;;;4.37;92.53;100290.84;10455348;28;20481;-85
2021/12/24 17:33:39;;;;;;;;;;;;;;;4.28;93.17;100278.19;10472335;28;20459;-85
2021/12/24 17:38:48;;;;;;;98.18;46.63;;;;;;;4.38;92.81;100284.84;10470721;28;19970;-85
2021/12/24 17:43:50;;;;;;;83.68;47.53;;;;;;;4.24;93.42;100265.84;10454951;28;20037;-86
2021/12/24 17:49:00;;;;;;;96.10;48.15;;;;;;;4.34;93.55;100267.31;10430321;28;20090;-78
2021/12/24 17:54:12;;;;;;;107.95;53.88;;;;;;;4.39;93.34;100260.75;10465137;28;20029;-79
2021/12/24 17:59:22;;;;;;;91.40;45.33;;;;;;;4.29;93.15;100258.38;10439823;28;20481;-79
2021/12/24 18:04:33;;;;;;;97.38;52.05;;;;;;;4.31;93.20;100247.28;10469322;28;20037;-82
2021/12/24 18:09:43;;;;;;;101.18;50.05;;;;;;;4.17;93.44;100259.38;10455609;28;20072;-83
2021/12/24 18:15:01;;;;;;;115.55;53.17;;;;;;;4.25;93.75;100257.25;10460740;28;20056;-81
2021/12/24 18:20:14;;;;;;;115.88;56.17;;;;;;;4.48;93.43;100265.59;10453452;28;20378;-79
2021/12/24 18:25:23;;;;;;;113.13;56.15;;;;;;;4.58;93.83;100285.22;10437246;28;20017;-80
2021/12/24 18:30:27;;;;;;;107.97;53.88;;;;;;;4.73;94.10;100280.97;10452915;28;20397;-80
2021/12/24 18:36:16;;;;;;;81.82;46.42;;;;;;;4.80;94.04;100284.81;10393815;28;20081;-80
2021/12/24 18:41:36;;;;;;;115.38;63.00;;;;;;;5.00;93.75;100289.53;10473886;28;20060;-78
2021/12/24 18:46:37;;;;;;;117.75;59.53;;;;;;;5.18;94.00;100293.16;10458003;28;20021;-79
2021/12/24 18:51:51;;;;;;;104.70;55.45;;;;;;;5.26;94.37;100287.63;10436121;28;20084;-77
2021/12/24 18:56:56;;;;;;;101.23;55.03;;;;;;;5.32;94.44;100294.88;10451748;28;20033;-78
2021/12/24 19:02:00;;;;;;;117.10;56.47;;;;;;;5.41;93.72;100295.44;10504840;28;20036;-80
2021/12/24 19:07:09;;;;;;;108.60;54.38;;;;;;;5.40;93.98;100306.63;10435885;28;20116;-77
2021/12/24 19:12:31;;;;;;;;;;;;;;;5.39;93.93;100306.50;10452191;28;20078;-78
2021/12/24 19:17:58;;;;;;;96.03;53.28;;;;;;;5.40;94.34;100309.22;10452884;28;20011;-78
2021/12/24 19:23:04;;;;;;;110.85;56.92;;;;;;;5.42;94.07;100310.19;10429273;28;20036;-79
2021/12/24 19:28:10;;;;;;;100.28;52.88;;;;;;;5.44;94.35;100307.69;10451589;28;20099;-81
2021/12/24 19:33:11;;;;;;;91.85;49.55;;;;;;;5.41;93.62;100308.41;10461332;28;20469;-79
2021/12/24 19:38:15;;;;;;;100.78;53.25;;;;;;;5.42;93.99;100307.59;10459299;28;20044;-79
2021/12/24 19:43:19;;;;;;;91.55;46.88;;;;;;;5.37;93.81;100306.44;10459556;28;20420;-79
2021/12/24 19:48:52;;;;;;;88.25;47.42;;;;;;;5.33;93.98;100303.53;10455204;28;20043;-79
2021/12/24 19:54:25;;;;;;;93.00;49.38;;;;;;;5.28;93.70;100300.69;10477092;28;20045;-81
2021/12/24 19:59:47;;;;;;;106.63;53.17;;;;;;;5.21;93.88;100302.00;10457924;28;20029;-78
2021/12/24 20:04:58;;;;;;;91.32;47.60;;;;;;;5.32;93.72;100288.78;10453176;28;20082;-81
2021/12/24 20:10:09;;;;;;;92.18;50.97;;;;;;;5.27;94.15;100293.72;10476031;28;20025;-81
2021/12/24 20:15:21;;;;;;;86.10;49.83;;;;;;;5.23;93.71;100279.66;10441043;28;20041;-81
2021/12/24 20:20:33;;;;;;;90.00;48.28;;;;;;;5.21;94.58;100276.06;10441056;28;20065;-82
2021/12/24 20:25:48;;;;;;;83.22;44.58;;;;;;;5.32;93.55;100281.91;10440854;28;20020;-79
2021/12/24 20:30:51;;;;;;;85.13;50.42;;;;;;;5.23;93.81;100281.34;10458322;28;20037;-78
2021/12/24 20:36:04;;;;;;;84.85;45.15;;;;;;;5.05;93.23;100282.03;10438681;28;20045;-81
2021/12/24 20:41:06;;;;;;;71.18;39.72;;;;;;;4.93;93.52;100289.97;10441256;28;20037;-81
2021/12/24 20:46:10;;;;;;;;;;;;;;;4.95;93.25;100292.66;10439145;28;20040;-81
2021/12/24 20:51:15;;;;;;;82.95;46.95;;;;;;;4.91;93.85;100288.97;10438327;28;20376;-82
2021/12/24 20:56:20;;;;;;;96.50;50.47;;;;;;;4.94;93.66;100289.16;10488474;28;20032;-80
2021/12/24 21:01:40;;;;;;;79.40;44.95;;;;;;;4.92;93.54;100295.06;10453915;28;20033;-79
2021/12/24 21:06:41;;;;;;;97.65;49.90;;;;;;;5.17;94.30;100312.13;10456036;28;20032;-83
2021/12/24 21:11:50;;;;;;;84.05;46.78;;;;;;;5.47;93.21;100306.97;10443450;28;20029;-82
2021/12/24 21:16:57;;;;;;;53.95;30.45;;;;;;;5.53;92.07;100312.53;10452722;28;20040;-82
2021/12/24 21:21:59;;;;;;;30.15;21.58;;;;;;;5.53;90.86;100304.75;10475192;28;20047;-82
2021/12/24 21:32:43;;;;;;;28.58;15.70;;;;;;;5.32;91.53;100306.94;10424559;28;20124;-82
2021/12/24 21:37:57;;;;;;;22.38;13.00;;;;;;;5.24;91.97;100322.94;10470057;28;20053;-81
2021/12/24 21:42:58;;;;;;;17.77;11.20;;;;;;;5.31;91.03;100311.25;10455778;28;20076;-82
2021/12/24 21:48:03;;;;;;;18.55;10.57;;;;;;;5.18;90.63;100311.31;10470374;28;20551;-79
2021/12/24 21:53:39;;;;;;;15.80;9.95;;;;;;;5.10;91.13;100298.78;10395043;28;20451;-82
2021/12/24 21:58:42;;;;;;;16.55;10.85;;;;;;;5.02;91.34;100304.28;10401690;28;20385;-81
2021/12/24 22:03:53;;;;;;;16.83;11.47;;;;;;;4.91;91.54;100303.66;10449783;28;20033;-82
2021/12/24 22:09:01;;;;;;;17.48;12.95;;;;;;;4.82;91.22;100302.28;10468776;28;20431;-81
2021/12/24 22:14:08;;;;;;;18.58;12.57;;;;;;;4.71;90.90;100300.72;10453765;28;20536;-81
2021/12/24 22:19:11;;;;;;;16.50;11.10;;;;;;;4.59;91.45;100310.34;10449389;28;20044;-81
2021/12/24 22:24:20;;;;;;;16.92;11.27;;;;;;;4.52;89.97;100311.63;10454171;28;20033;-81
2021/12/24 22:29:22;;;;;;;17.08;11.73;;;;;;;4.39;90.47;100313.44;10451553;28;20023;-81
2021/12/24 22:34:27;;;;;;;15.38;11.80;;;;;;;4.34;90.64;100304.47;10435878;28;20048;-81
2021/12/24 22:39:34;;;;;;;13.77;10.43;;;;;;;4.27;90.73;100320.44;10470109;28;20044;-81
2021/12/24 22:44:39;;;;;;;16.83;9.80;;;;;;;4.20;90.09;100323.41;10452708;28;20504;-82
2021/12/24 22:49:43;;;;;;;14.02;9.38;;;;;;;4.18;90.62;100325.94;10450277;28;20124;-81
2021/12/24 22:54:49;;;;;;;11.27;8.00;;;;;;;4.13;90.18;100327.31;10434900;28;20025;-81
2021/12/24 22:59:56;;;;;;;12.35;9.25;;;;;;;4.06;90.45;100326.00;10452448;28;20049;-82
2021/12/24 23:05:05;;;;;;;13.85;9.38;;;;;;;3.99;90.57;100318.66;10466406;28;20028;-81
2021/12/24 23:10:15;;;;;;;13.98;9.68;;;;;;;3.98;90.52;100319.44;10455663;28;20032;-81
2021/12/24 23:15:19;;;;;;;15.00;9.45;;;;;;;3.93;90.80;100323.41;10493799;28;20217;-81
2021/12/24 23:20:29;;;;;;;18.52;11.88;;;;;;;3.97;91.26;100315.06;10460172;28;20090;-81
2021/12/24 23:25:43;;;;;;;19.10;10.60;;;;;;;3.92;90.66;100326.81;10444030;28;20178;-81
2021/12/24 23:30:47;;;;;;;22.77;11.83;;;;;;;3.89;90.86;100314.56;10458497;28;20045;-81
2021/12/24 23:35:50;;;;;;;18.48;13.68;;;;;;;3.85;91.33;100314.25;10459715;28;20049;-81
2021/12/24 23:40:55;;;;;;;21.40;13.10;;;;;;;3.93;90.92;100316.56;10460484;28;20036;-81
2021/12/24 23:46:04;;;;;;;25.27;16.95;;;;;;;3.94;90.84;100310.59;10441474;28;20086;-81
2021/12/24 23:51:07;;;;;;;26.65;15.02;;;;;;;3.97;90.91;100310.78;10475577;28;20040;-81
2021/12/24 23:56:14;;;;;;;29.17;17.05;;;;;;;3.92;91.17;100308.69;10461567;28;20488;-81
